Terminal Aerodrome Forecast
Issued by NWS

Home | Current Version | Previous Version | Text Only | Print | Product List | Glossary On
Versions: 1 2 3 4 5 6 7 8 9 10 11 12 13 14 15 16
197
FTUS44 KBMX 301139
TAFMGM
TAF
KMGM 301139Z 3012/0112 13007G15KT P6SM SKC
     FM301500 15015G25KT P6SM SCT025 BKN050
     FM302000 18020G30KT P6SM VCSH BKN035
     FM010200 16020G27KT P6SM VCTS OVC025CB
     FM010400 19018KT 2SM TSRA SCT015CB OVC025=

USA.gov is the U.S. government's official web portal to all federal, state and local government web resources and services.